Time;durP1;ratioP1;P1;durP2;ratioP2;P2;SDS_P1;SDS_P2;PMS_P1;PMS_P2;Temp;Humidity;BMP_temperature;BMP_pressure;BME280_temperature;BME280_humidity;BME280_pressure;Samples;Min_cycle;Max_cycle;Signal;HPM_P1;HPM_P2
2021/05/11 00:00:14;;;;;;;13.35;4.70;;;16.90;93.20;;;;;;5014597;28;20033;-72
2021/05/11 00:02:40;;;;;;;8.52;4.10;;;16.90;93.30;;;;;;5013264;28;20447;-74
2021/05/11 00:05:06;;;;;;;4.38;3.97;;;16.80;93.50;;;;;;5014586;28;20092;-73
2021/05/11 00:07:32;;;;;;;5.15;4.60;;;16.80;93.70;;;;;;5014499;28;20490;-71
2021/05/11 00:09:58;;;;;;;7.55;4.35;;;16.80;93.80;;;;;;5016556;28;20394;-71
2021/05/11 00:12:24;;;;;;;7.65;4.47;;;16.70;93.80;;;;;;5036227;28;20029;-71
2021/05/11 00:14:50;;;;;;;5.45;4.18;;;16.70;93.90;;;;;;5054026;28;20025;-72
2021/05/11 00:17:16;;;;;;;4.07;3.33;;;16.70;94.10;;;;;;5054088;28;20035;-71
2021/05/11 00:19:42;;;;;;;4.45;3.83;;;16.70;94.20;;;;;;5053957;28;20488;-72
2021/05/11 00:22:08;;;;;;;7.20;3.53;;;16.60;94.40;;;;;;5035895;28;20052;-72
2021/05/11 00:24:33;;;;;;;6.15;3.65;;;16.60;94.40;;;;;;5053832;28;20094;-73
2021/05/11 00:26:59;;;;;;;7.85;3.70;;;16.60;94.30;;;;;;5036013;28;20033;-73
2021/05/11 00:29:25;;;;;;;8.00;4.55;;;16.60;94.50;;;;;;5053759;28;20032;-74
2021/05/11 00:31:51;;;;;;;9.40;4.57;;;16.60;94.40;;;;;;5035856;28;20025;-73
2021/05/11 00:34:17;;;;;;;7.07;4.25;;;16.60;94.50;;;;;;5035646;28;20389;-74
2021/05/11 00:36:43;;;;;;;9.57;4.50;;;16.50;94.70;;;;;;5053688;28;20112;-72
2021/05/11 00:39:08;;;;;;;6.28;3.40;;;16.40;94.70;;;;;;5035711;28;20036;-71
2021/05/11 00:41:34;;;;;;;5.90;3.85;;;16.40;94.70;;;;;;5035589;28;20503;-72
2021/05/11 00:44:00;;;;;;;5.78;3.13;;;16.40;94.90;;;;;;5053179;28;20735;-71
2021/05/11 00:46:27;;;;;;;5.13;3.50;;;16.30;95.00;;;;;;5053498;28;20029;-73
2021/05/11 00:48:53;;;;;;;4.30;3.33;;;16.30;95.00;;;;;;5053411;28;20035;-73
2021/05/11 00:51:20;;;;;;;5.00;3.60;;;16.30;95.20;;;;;;5035200;28;20020;-72
2021/05/11 00:53:46;;;;;;;6.45;3.30;;;16.30;95.30;;;;;;5053373;28;20044;-72
2021/05/11 00:56:13;;;;;;;7.05;3.65;;;16.20;95.30;;;;;;5035400;28;20021;-72
2021/05/11 00:58:39;;;;;;;4.40;3.28;;;16.20;95.30;;;;;;5053291;28;20028;-71
2021/05/11 01:01:05;;;;;;;5.07;3.10;;;16.20;95.30;;;;;;5052462;28;20462;-72
2021/05/11 01:03:31;;;;;;;4.30;3.60;;;16.20;95.50;;;;;;5053154;28;20033;-71
2021/05/11 01:05:56;;;;;;;5.07;3.10;;;16.10;95.50;;;;;;5053235;28;20035;-70
2021/05/11 01:08:22;;;;;;;3.97;3.45;;;16.10;95.80;;;;;;5053150;28;20033;-72
2021/05/11 01:10:49;;;;;;;5.10;3.47;;;16.10;95.80;;;;;;5034976;28;20145;-73
2021/05/11 01:13:14;;;;;;;5.38;3.03;;;16.10;95.80;;;;;;5035114;28;20033;-72
2021/05/11 01:15:44;;;;;;;5.18;3.20;;;16.10;95.80;;;;;;5035105;28;20025;-71
2021/05/11 01:18:14;;;;;;;7.55;3.22;;;16.10;95.90;;;;;;5053050;28;20029;-71
2021/05/11 01:20:47;;;;;;;5.93;3.35;;;15.90;96.00;;;;;;5053022;28;20032;-73
2021/05/11 01:25:40;;;;;;;4.47;3.40;;;15.90;96.40;;;;;;5052897;28;20032;-72
2021/05/11 01:49:58;;;;;;;4.03;3.67;;;15.60;97.20;;;;;;5052733;28;20496;-71
2021/05/11 01:52:37;;;;;;;3.33;2.95;;;15.60;97.30;;;;;;5051768;28;20382;-72
2021/05/11 02:25:09;;;;;;;3.20;2.90;;;15.20;97.80;;;;;;5014089;28;20034;-71
2021/05/11 02:27:38;;;;;;;6.30;3.25;;;15.10;97.80;;;;;;4997534;28;20087;-73
2021/05/11 02:30:07;;;;;;;3.83;3.05;;;15.10;97.80;;;;;;5016266;28;20042;-73
2021/05/11 02:32:34;;;;;;;3.63;3.20;;;15.10;97.70;;;;;;5015041;28;20116;-72
2021/05/11 02:35:00;;;;;;;4.70;3.20;;;15.10;97.70;;;;;;5015211;28;20159;-72
2021/05/11 02:37:26;;;;;;;5.40;3.50;;;15.10;98.00;;;;;;5016273;28;20030;-70
2021/05/11 02:39:52;;;;;;;2.97;2.78;;;15.10;98.00;;;;;;5014842;28;20481;-70
2021/05/11 02:42:18;;;;;;;3.97;3.40;;;15.00;98.10;;;;;;5016031;28;20034;-70
2021/05/11 02:44:46;;;;;;;5.32;3.78;;;14.90;98.00;;;;;;5016073;28;20096;-70
2021/05/11 02:47:12;;;;;;;5.88;3.47;;;14.80;98.30;;;;;;5016084;28;20029;-71
2021/05/11 02:49:42;;;;;;;9.73;3.95;;;14.70;98.50;;;;;;5015987;28;20034;-70
2021/05/11 02:52:09;;;;;;;3.58;3.20;;;14.60;98.80;;;;;;5016031;28;20045;-71
2021/05/11 02:54:34;;;;;;;5.22;3.72;;;14.60;98.80;;;;;;5015897;28;20025;-70
2021/05/11 02:57:00;;;;;;;7.47;3.72;;;14.60;98.80;;;;;;5014620;28;20034;-70
2021/05/11 02:59:29;;;;;;;4.32;3.35;;;14.60;98.90;;;;;;5014467;28;20406;-71
2021/05/11 03:01:56;;;;;;;4.20;3.60;;;14.60;98.80;;;;;;5015724;28;20478;-72
2021/05/11 03:04:22;;;;;;;11.05;3.65;;;14.60;98.80;;;;;;5015639;28;20060;-71
2021/05/11 03:06:48;;;;;;;3.83;3.20;;;14.60;99.00;;;;;;5015641;28;20486;-73
2021/05/11 03:09:14;;;;;;;5.85;3.95;;;14.60;99.00;;;;;;5014236;28;20080;-71
2021/05/11 03:11:40;;;;;;;5.80;3.75;;;14.60;98.60;;;;;;5046555;28;20049;-72
2021/05/11 03:14:06;;;;;;;4.53;3.75;;;14.60;98.80;;;;;;5037322;28;20033;-73
2021/05/11 03:16:35;;;;;;;5.28;3.65;;;14.50;98.90;;;;;;5055178;28;20040;-73
2021/05/11 03:19:01;;;;;;;4.50;3.63;;;14.50;98.80;;;;;;5055220;28;20021;-72
2021/05/11 03:21:26;;;;;;;6.80;3.50;;;14.50;98.90;;;;;;5055192;28;20029;-71
2021/05/11 03:23:52;;;;;;;6.20;4.15;;;14.40;98.90;;;;;;5054186;28;20120;-72
2021/05/11 03:26:18;;;;;;;5.15;3.83;;;14.40;99.30;;;;;;5037083;28;20126;-71
2021/05/11 03:28:44;;;;;;;8.52;3.95;;;14.40;99.10;;;;;;5054759;28;20032;-74
2021/05/11 03:31:10;;;;;;;3.15;2.90;;;14.40;98.90;;;;;;5054956;28;20033;-74
2021/05/11 03:33:36;;;;;;;4.53;3.55;;;14.50;98.50;;;;;;5054904;28;20037;-71
2021/05/11 03:36:02;;;;;;;5.97;3.17;;;14.50;98.40;;;;;;5054786;28;20354;-72
2021/05/11 03:38:28;;;;;;;7.57;3.67;;;14.50;98.20;;;;;;5036644;28;20127;-72
2021/05/11 03:40:54;;;;;;;5.60;3.60;;;14.50;98.50;;;;;;5054772;28;20028;-72
2021/05/11 03:43:25;;;;;;;3.63;3.25;;;14.40;98.70;;;;;;5036450;28;20045;-74
2021/05/11 03:45:56;;;;;;;16.67;4.18;;;14.40;98.80;;;;;;5054706;28;20025;-72
2021/05/11 03:48:21;;;;;;;4.78;3.65;;;14.40;98.90;;;;;;5054623;28;20116;-71
2021/05/11 03:50:47;;;;;;;7.82;4.55;;;14.40;99.00;;;;;;5054548;28;20537;-73
2021/05/11 03:53:13;;;;;;;6.55;3.65;;;14.40;98.80;;;;;;5036627;28;20028;-72
2021/05/11 03:55:39;;;;;;;7.28;4.00;;;14.40;99.10;;;;;;5036553;28;20480;-72
2021/05/11 03:58:05;;;;;;;4.40;3.80;;;14.50;99.20;;;;;;5054041;28;20381;-72
2021/05/11 04:00:31;;;;;;;13.20;3.75;;;14.50;99.20;;;;;;5054337;28;20039;-71
2021/05/11 04:02:57;;;;;;;8.68;3.40;;;14.60;98.90;;;;;;5054036;28;20044;-72
2021/05/11 04:05:23;;;;;;;13.70;8.88;;;14.60;98.90;;;;;;5054275;28;20037;-72
2021/05/11 04:07:53;;;;;;;12.02;6.13;;;14.70;99.00;;;;;;5054193;28;20083;-70
2021/05/11 04:13:05;;;;;;;46.13;8.25;;;14.70;98.50;;;;;;5054167;28;20024;-73
2021/05/11 04:18:16;;;;;;;9.60;4.72;;;14.80;98.10;;;;;;5054111;28;20124;-72
2021/05/11 04:20:42;;;;;;;7.55;5.20;;;14.80;98.30;;;;;;5053920;28;20024;-72
2021/05/11 04:23:08;;;;;;;11.70;4.93;;;14.90;99.10;;;;;;5035916;28;20045;-72
2021/05/11 04:25:33;;;;;;;8.77;3.95;;;14.80;99.00;;;;;;5053822;28;20430;-71
2021/05/11 04:27:59;;;;;;;4.38;3.72;;;14.80;98.80;;;;;;5053910;28;20031;-74
2021/05/11 04:30:25;;;;;;;5.68;3.97;;;14.90;99.00;;;;;;5053816;28;20036;-72
2021/05/11 04:32:51;;;;;;;5.70;3.38;;;14.80;98.90;;;;;;5035866;28;20025;-71
2021/05/11 04:35:17;;;;;;;5.00;3.38;;;14.80;98.70;;;;;;5053665;28;20025;-71
2021/05/11 04:37:44;;;;;;;4.50;3.30;;;14.90;98.70;;;;;;5035716;28;20021;-71
2021/05/11 04:40:10;;;;;;;4.97;3.58;;;14.90;98.80;;;;;;5035403;28;20029;-73
2021/05/11 04:42:37;;;;;;;5.60;3.55;;;15.00;98.70;;;;;;5035517;28;20127;-75
2021/05/11 04:45:05;;;;;;;6.72;3.97;;;15.10;98.90;;;;;;5035593;28;20135;-71
2021/05/11 04:47:50;;;;;;;6.50;3.50;;;15.10;98.70;;;;;;5053315;28;20025;-71
2021/05/11 04:50:22;;;;;;;8.40;3.40;;;15.20;98.30;;;;;;5035432;28;20057;-71
2021/05/11 04:52:49;;;;;;;5.82;4.13;;;15.30;98.40;;;;;;5053237;28;20056;-73
2021/05/11 04:55:16;;;;;;;4.22;3.83;;;15.30;98.10;;;;;;5053161;28;20032;-69
2021/05/11 04:57:42;;;;;;;3.95;3.33;;;15.40;98.10;;;;;;5052949;28;20049;-71
2021/05/11 05:00:10;;;;;;;4.10;3.55;;;15.40;97.90;;;;;;5035209;28;20067;-70
2021/05/11 05:02:38;;;;;;;5.72;3.97;;;15.50;98.10;;;;;;5035057;28;20094;-71
2021/05/11 05:05:05;;;;;;;4.88;4.00;;;15.50;98.10;;;;;;5035081;28;20025;-74
2021/05/11 05:07:31;;;;;;;4.28;3.47;;;15.60;98.00;;;;;;5057463;28;20032;-73
2021/05/11 05:09:57;;;;;;;7.97;4.30;;;15.60;98.30;;;;;;5053919;28;20032;-72
2021/05/11 05:12:23;;;;;;;6.32;3.70;;;15.70;98.40;;;;;;5072678;28;20393;-71
2021/05/11 05:14:50;;;;;;;5.20;3.70;;;15.70;97.90;;;;;;5073032;28;20094;-73
2021/05/11 05:17:16;;;;;;;5.13;3.83;;;15.80;97.90;;;;;;5072801;28;20021;-71
2021/05/11 05:19:42;;;;;;;4.97;3.50;;;15.80;97.60;;;;;;5054868;28;20025;-71
2021/05/11 05:22:08;;;;;;;6.25;3.70;;;15.90;97.50;;;;;;5054785;28;20058;-71
2021/05/11 05:24:41;;;;;;;12.82;4.30;;;15.90;97.40;;;;;;5072951;28;20028;-72
2021/05/11 05:29:42;;;;;;;6.18;3.80;;;16.00;97.10;;;;;;5072785;28;20100;-72
2021/05/11 05:32:08;;;;;;;4.15;3.72;;;16.10;97.10;;;;;;5054790;28;20143;-72
2021/05/11 05:34:34;;;;;;;5.25;4.13;;;16.20;97.10;;;;;;5073044;28;20472;-71
2021/05/11 05:37:01;;;;;;;9.65;4.25;;;16.30;97.20;;;;;;5072592;28;20057;-71
2021/05/11 05:39:37;;;;;;;8.13;4.18;;;16.40;97.20;;;;;;5054413;28;20024;-70
2021/05/11 05:42:04;;;;;;;6.40;4.07;;;16.50;97.30;;;;;;5054350;28;20078;-71
2021/05/11 05:44:31;;;;;;;7.07;4.88;;;16.50;97.30;;;;;;5072625;28;20043;-71
2021/05/11 05:46:57;;;;;;;12.20;5.15;;;16.70;97.20;;;;;;5073992;28;20028;-71
2021/05/11 05:49:25;;;;;;;8.63;4.78;;;16.80;97.00;;;;;;5076872;28;20398;-71
2021/05/11 05:51:51;;;;;;;9.82;4.63;;;16.90;96.70;;;;;;5076757;28;20052;-72
2021/05/11 05:54:17;;;;;;;3.65;2.80;;;17.00;96.30;;;;;;5076666;28;20373;-71
2021/05/11 05:56:43;;;;;;;5.13;3.00;;;;;;;;;;5076568;28;20027;-72
2021/05/11 05:59:09;;;;;;;3.97;2.35;;;17.20;95.10;;;;;;5076607;28;20514;-70
2021/05/11 06:01:35;;;;;;;5.63;2.50;;;17.40;94.80;;;;;;5058422;28;20036;-71
2021/05/11 06:04:09;;;;;;;7.57;2.70;;;17.50;94.70;;;;;;5076239;28;20032;-71
2021/05/11 06:06:35;;;;;;;3.95;2.85;;;17.60;94.50;;;;;;5058321;28;20388;-72
2021/05/11 06:09:01;;;;;;;2.35;2.00;;;17.70;93.70;;;;;;5076353;28;20029;-72
2021/05/11 06:19:14;;;;;;;6.28;2.60;;;18.10;93.80;;;;;;5056206;28;20036;-72
2021/05/11 06:21:40;;;;;;;3.17;2.20;;;18.20;94.00;;;;;;5054446;28;20029;-72
2021/05/11 06:24:07;;;;;;;2.90;2.05;;;18.20;93.50;;;;;;5054215;28;20036;-72
2021/05/11 06:26:33;;;;;;;5.05;2.25;;;18.30;93.70;;;;;;5055739;28;20075;-72
2021/05/11 06:29:01;;;;;;;5.57;2.20;;;18.40;93.60;;;;;;5054791;28;20037;-72
2021/05/11 06:31:27;;;;;;;2.38;2.10;;;18.50;93.40;;;;;;5055959;28;20029;-72
2021/05/11 06:33:54;;;;;;;9.35;2.33;;;18.60;93.50;;;;;;5054659;28;20074;-71
2021/05/11 06:36:20;;;;;;;4.57;2.58;;;18.60;93.60;;;;;;5055963;28;20035;-72
2021/05/11 06:38:46;;;;;;;4.85;2.25;;;18.70;93.00;;;;;;5056012;28;20408;-71
2021/05/11 06:41:13;;;;;;;3.42;1.95;;;18.70;92.80;;;;;;5054518;28;20492;-72
2021/05/11 06:43:41;;;;;;;3.78;2.25;;;18.80;92.40;;;;;;5055699;28;20029;-71
2021/05/11 06:48:55;;;;;;;4.22;2.50;;;18.90;92.60;;;;;;5055614;28;20025;-72
2021/05/11 06:57:29;;;;;;;5.47;2.65;;;19.20;93.10;;;;;;5055538;28;20036;-72
2021/05/11 06:59:55;;;;;;;2.22;1.95;;;19.30;92.70;;;;;;5053329;28;20033;-72
2021/05/11 07:02:22;;;;;;;5.45;2.70;;;19.40;93.20;;;;;;5054064;28;20025;-72
2021/05/11 07:04:53;;;;;;;7.25;2.50;;;19.60;92.50;;;;;;5051916;28;20037;-71
2021/05/11 07:07:21;;;;;;;6.28;2.17;;;19.70;92.50;;;;;;5035458;28;20052;-69
2021/05/11 07:15:02;;;;;;;3.15;2.13;;;19.90;91.10;;;;;;5074899;28;20044;-71
2021/05/11 07:17:29;;;;;;;3.53;2.10;;;20.10;91.10;;;;;;5056108;28;20029;-71
2021/05/11 07:19:55;;;;;;;6.20;2.50;;;20.20;91.60;;;;;;5056807;28;20104;-71
2021/05/11 07:22:22;;;;;;;3.72;2.00;;;20.40;91.10;;;;;;5056806;28;20165;-71
2021/05/11 07:24:52;;;;;;;5.88;2.38;;;20.50;90.80;;;;;;5073337;28;20473;-69
2021/05/11 07:28:21;;;;;;;3.22;2.40;;;20.60;90.70;;;;;;5074207;28;20119;-72
2021/05/11 07:30:13;;;;;;;4.55;2.58;;;20.70;89.40;;;;;;5059991;28;20090;-71
2021/05/11 07:32:40;;;;;;;2.30;2.10;;;20.80;90.10;;;;;;5056767;28;20036;-74
2021/05/11 07:35:06;;;;;;;2.85;2.65;;;;;;;;;;5074300;28;20393;-72
2021/05/11 07:37:33;;;;;;;3.75;2.05;;;21.10;88.10;;;;;;5074091;28;20104;-72
2021/05/11 07:39:59;;;;;;;3.15;2.28;;;21.20;88.10;;;;;;5074555;28;20033;-72
2021/05/11 07:42:25;;;;;;;3.85;2.50;;;21.30;89.10;;;;;;5056318;28;20029;-72
2021/05/11 07:44:55;;;;;;;5.30;3.05;;;21.40;89.30;;;;;;5071986;28;20021;-70
2021/05/11 07:47:34;;;;;;;4.40;2.90;;;21.50;86.90;;;;;;5056060;28;20021;-70
2021/05/11 07:50:41;;;;;;;6.25;3.08;;;21.60;86.10;;;;;;5055435;28;20453;-71
2021/05/11 08:17:42;;;;;;;8.35;3.67;;;23.00;82.40;;;;;;5056119;28;20381;-70
2021/05/11 08:28:02;;;;;;;5.03;3.90;;;23.40;81.90;;;;;;5073513;28;20059;-71
2021/05/11 08:30:28;;;;;;;6.05;3.63;;;23.60;81.50;;;;;;5072669;28;20040;-71
2021/05/11 08:32:54;;;;;;;7.13;3.92;;;23.80;83.10;;;;;;5073352;28;20461;-71
2021/05/11 08:35:22;;;;;;;4.60;3.35;;;24.00;81.80;;;;;;5055231;28;20020;-71
2021/05/11 08:37:47;;;;;;;6.45;3.38;;;24.00;81.70;;;;;;5073357;28;20052;-70
2021/05/11 08:40:14;;;;;;;6.88;3.22;;;24.10;80.40;;;;;;5055308;28;20071;-71
2021/05/11 08:42:40;;;;;;;4.57;2.75;;;24.30;81.60;;;;;;5055325;28;20516;-71
2021/05/11 08:45:08;;;;;;;7.22;2.78;;;24.40;80.40;;;;;;5073043;28;20103;-72
2021/05/11 08:47:48;;;;;;;6.07;2.75;;;24.60;81.40;;;;;;5055199;28;20548;-71
2021/05/11 08:50:50;;;;;;;5.95;3.17;;;24.80;80.30;;;;;;5072926;28;20358;-71
2021/05/11 08:53:32;;;;;;;4.95;2.50;;;;;;;;;;5072229;28;20442;-71
2021/05/11 09:24:08;;;;;;;12.68;3.33;;;;;;;;;;5072442;28;20039;-69
2021/05/11 09:27:23;;;;;;;7.10;3.10;;;;;;;;;;5054297;28;20029;-71
2021/05/11 09:29:27;;;;;;;6.25;3.30;;;;;;;;;;5061463;28;20086;-69
2021/05/11 09:32:07;;;;;;;9.30;3.50;;;;;;;;;;5054343;28;20074;-70
2021/05/11 09:44:50;;;;;;;4.07;3.10;;;;;;;;;;5054533;28;20098;-72
2021/05/11 10:39:38;;;;;;;4.05;2.80;;;;;;;;;;5075271;28;20038;-72
2021/05/11 10:48:01;;;;;;;2.97;2.33;;;;;;;;;;5075645;28;20029;-72
2021/05/11 10:50:50;;;;;;;5.80;2.85;;;;;;;;;;5075408;28;20031;-73
2021/05/11 10:53:35;;;;;;;6.45;2.60;;;;;;;;;;5011899;28;20492;-71
2021/05/11 10:56:32;;;;;;;4.07;2.35;;;;;;;;;;5056944;28;20025;-72
2021/05/11 11:01:57;;;;;;;6.25;2.45;;;;;;;;;;5075435;28;20397;-72
2021/05/11 11:04:24;;;;;;;4.60;2.85;;;;;;;;;;5057240;28;20052;-71
2021/05/11 11:07:00;;;;;;;4.93;2.97;;;;;;;;;;5075084;28;20509;-72
2021/05/11 11:09:27;;;;;;;3.95;2.70;;;;;;;;;;5057212;28;20473;-72
2021/05/11 11:11:53;;;;;;;3.00;2.33;;;;;;;;;;5056823;28;20858;-72
2021/05/11 11:14:19;;;;;;;3.85;2.53;;;;;;;;;;5074833;28;20043;-72
2021/05/11 11:16:46;;;;;;;8.52;3.00;;;;;;;;;;5057166;28;20020;-72
2021/05/11 11:19:16;;;;;;;4.70;3.45;;;;;;;;;;5057096;28;20024;-72
2021/05/11 11:24:27;;;;;;;4.28;2.92;;;;;;;;;;5074904;28;20029;-72
2021/05/11 11:26:55;;;;;;;4.80;2.38;;;;;;;;;;5075238;28;20507;-72
2021/05/11 11:29:21;;;;;;;2.85;2.50;;;;;;;;;;5074685;28;20445;-72
2021/05/11 11:31:47;;;;;;;6.20;2.80;;;;;;;;;;5074938;28;20021;-72
2021/05/11 11:34:33;;;;;;;5.85;2.97;;;;;;;;;;5056400;28;20031;-72
2021/05/11 11:37:02;;;;;;;3.00;2.03;;;;;;;;;;5074657;28;20055;-72
2021/05/11 11:39:29;;;;;;;4.25;2.58;;;;;;;;;;5074737;28;20029;-71
2021/05/11 11:41:57;;;;;;;3.22;2.42;;;;;;;;;;5074698;28;20021;-70
2021/05/11 11:44:25;;;;;;;4.35;2.40;;;;;;;;;;5073976;28;20016;-71
2021/05/11 11:47:01;;;;;;;5.95;2.40;;;;;;;;;;5074494;28;20029;-71
2021/05/11 11:49:29;;;;;;;3.13;2.40;;;;;;;;;;5074541;28;20461;-71
2021/05/11 11:52:01;;;;;;;2.50;2.30;;;;;;;;;;5074528;28;20021;-71
2021/05/11 11:59:32;;;;;;;8.07;2.50;;;;;;;;;;5072219;28;20569;-72
2021/05/11 12:02:00;;;;;;;2.47;2.05;;;;;;;;;;5056170;28;20020;-72
2021/05/11 12:04:26;;;;;;;6.97;2.25;;;;;;;;;;5074050;28;20059;-71
2021/05/11 12:06:53;;;;;;;4.43;2.17;;;43.90;33.80;;;;;;5073939;28;20466;-71
2021/05/11 12:09:20;;;;;;;3.47;2.35;;;43.60;33.90;;;;;;5073925;28;20036;-71
2021/05/11 12:11:47;;;;;;;2.65;2.13;;;44.00;33.00;;;;;;5073507;28;20052;-71
2021/05/11 12:14:16;;;;;;;3.72;1.85;;;44.10;33.70;;;;;;5073897;28;20385;-71
2021/05/11 12:16:44;;;;;;;2.88;2.30;;;44.50;33.80;;;;;;5073848;28;20103;-72
2021/05/11 12:19:15;;;;;;;1.92;1.83;;;44.90;34.20;;;;;;5073961;28;20025;-72
2021/05/11 12:22:01;;;;;;;2.42;2.10;;;45.10;33.10;;;;;;5073983;28;20469;-71
2021/05/11 12:24:37;;;;;;;2.83;2.25;;;45.50;33.00;;;;;;5074161;28;20028;-72
2021/05/11 12:27:22;;;;;;;2.15;1.95;;;45.50;32.90;;;;;;5074140;28;20032;-72
2021/05/11 12:30:10;;;;;;;2.55;1.90;;;45.80;32.00;;;;;;5074497;28;20083;-72
2021/05/11 12:32:37;;;;;;;2.90;2.25;;;46.00;31.60;;;;;;5074394;28;20024;-70
2021/05/11 12:35:08;;;;;;;2.15;1.85;;;46.20;31.40;;;;;;5074110;28;20419;-71
2021/05/11 12:37:49;;;;;;;2.55;2.10;;;46.60;31.40;;;;;;5074597;28;20028;-71
2021/05/11 12:40:28;;;;;;;2.60;1.80;;;46.70;30.40;;;;;;5074365;28;20037;-70
2021/05/11 12:42:56;;;;;;;3.90;1.83;;;46.40;30.10;;;;;;5074434;28;20491;-70
2021/05/11 12:45:23;;;;;;;2.42;1.52;;;46.70;30.00;;;;;;5073425;28;20465;-72
2021/05/11 12:48:11;;;;;;;2.05;1.95;;;46.80;30.10;;;;;;5055265;28;20067;-70
2021/05/11 12:50:43;;;;;;;3.58;1.80;;;47.40;30.70;;;;;;5073436;28;20021;-71
2021/05/11 12:59:38;;;;;;;1.50;1.40;;;47.90;28.90;;;;;;5073012;28;20448;-70
2021/05/11 13:02:03;;;;;;;2.97;1.67;;;47.80;29.10;;;;;;5051249;28;20045;-71
2021/05/11 13:23:20;;;;;;;2.47;1.60;;;49.50;29.40;;;;;;5072767;28;20044;-71
2021/05/11 13:31:44;;;;;;;1.50;1.40;;;49.80;27.60;;;;;;5072938;28;20526;-70
2021/05/11 13:34:33;;;;;;;3.03;1.35;;;50.10;37.10;;;;;;5061553;28;20401;-70
2021/05/11 13:36:40;;;;;;;2.67;1.73;;;50.20;27.40;;;;;;5061644;28;20138;-71
2021/05/11 13:39:07;;;;;;;1.63;1.52;;;50.30;27.90;;;;;;5072961;28;20453;-71
2021/05/11 13:41:32;;;;;;;2.13;1.88;;;50.50;28.30;;;;;;5072854;28;20025;-70
2021/05/11 13:44:00;;;;;;;2.08;1.48;;;50.50;27.20;;;;;;5054804;28;20074;-70
2021/05/11 13:46:26;;;;;;;4.50;1.70;;;50.60;27.50;;;;;;5072414;28;20393;-71
2021/05/11 13:48:52;;;;;;;1.88;1.63;;;50.60;28.20;;;;;;5072992;28;20515;-70
2021/05/11 13:51:19;;;;;;;2.05;1.73;;;50.80;28.30;;;;;;5072695;28;20029;-70
2021/05/11 13:53:56;;;;;;;2.10;1.42;;;51.00;27.90;;;;;;5072825;28;20060;-71
2021/05/11 14:04:19;;;;;;;2.78;1.90;;;51.30;27.60;;;;;;5072447;28;20033;-70
2021/05/11 14:06:46;;;;;;;1.63;1.52;;;51.20;27.20;;;;;;5072829;28;20037;-70
2021/05/11 14:09:12;;;;;;;2.17;1.73;;;50.90;27.30;;;;;;5075883;28;20035;-70
2021/05/11 14:11:40;;;;;;;6.30;1.95;;;51.00;27.30;;;;;;5076025;28;20517;-70
2021/05/11 14:14:07;;;;;;;4.00;2.05;;;51.10;27.90;;;;;;5058317;28;20043;-70
2021/05/11 14:16:33;;;;;;;2.67;1.90;;;51.30;28.00;;;;;;5076354;28;20050;-70
2021/05/11 14:18:59;;;;;;;4.15;1.70;;;51.30;27.30;;;;;;5076301;28;20488;-70
2021/05/11 14:21:26;;;;;;;1.50;1.40;;;51.00;27.90;;;;;;5058259;28;20028;-69
2021/05/11 14:23:53;;;;;;;1.60;1.50;;;50.90;27.80;;;;;;5058282;28;20032;-71
2021/05/11 14:26:23;;;;;;;2.70;1.63;;;51.10;28.00;;;;;;5076142;28;20036;-71
2021/05/11 14:28:49;;;;;;;3.05;1.80;;;51.10;28.00;;;;;;5076192;28;20032;-71
2021/05/11 14:31:15;;;;;;;1.52;1.40;;;51.30;28.00;;;;;;5075820;28;20039;-70
2021/05/11 14:33:41;;;;;;;2.15;1.70;;;51.20;27.40;;;;;;5057957;28;20428;-70
2021/05/11 14:36:07;;;;;;;3.80;1.92;;;51.10;27.30;;;;;;5057733;28;20024;-70
2021/05/11 14:38:35;;;;;;;1.48;1.45;;;51.30;27.50;;;;;;5075900;28;20029;-70
2021/05/11 14:41:03;;;;;;;4.88;1.98;;;51.40;27.40;;;;;;5057691;28;20024;-70
2021/05/11 14:43:33;;;;;;;1.75;1.40;;;51.30;27.80;;;;;;5057857;28;20040;-69
2021/05/11 14:46:00;;;;;;;1.95;1.60;;;50.80;27.10;;;;;;5057741;28;20036;-72
2021/05/11 14:48:26;;;;;;;1.42;1.35;;;50.40;27.80;;;;;;5075768;28;20028;-70
2021/05/11 14:50:52;;;;;;;2.75;1.67;;;49.30;27.80;;;;;;5075714;28;20415;-71
2021/05/11 14:53:17;;;;;;;4.03;1.77;;;47.80;28.10;;;;;;5075723;28;20032;-71
2021/05/11 14:55:43;;;;;;;1.67;1.55;;;46.50;29.00;;;;;;5075598;28;20070;-70
2021/05/11 14:58:09;;;;;;;2.00;1.67;;;45.50;29.50;;;;;;5075290;28;20032;-70
2021/05/11 15:00:36;;;;;;;3.83;2.20;;;44.60;30.00;;;;;;5075255;28;20426;-70
2021/05/11 15:03:02;;;;;;;3.17;2.25;;;45.20;30.60;;;;;;5075478;28;20061;-70
2021/05/11 15:05:27;;;;;;;4.53;2.72;;;46.30;30.50;;;;;;5075157;28;20071;-70
2021/05/11 15:07:53;;;;;;;2.65;2.00;;;47.50;29.50;;;;;;5075448;28;20025;-70
2021/05/11 15:10:20;;;;;;;3.03;2.38;;;48.40;28.80;;;;;;5056943;28;20052;-70
2021/05/11 15:12:47;;;;;;;5.95;2.65;;;49.10;28.80;;;;;;5075370;28;20032;-70
2021/05/11 15:15:17;;;;;;;2.10;1.90;;;49.50;28.30;;;;;;5075326;28;20020;-71
2021/05/11 15:20:12;;;;;;;2.17;1.67;;;49.40;27.70;;;;;;5074041;28;20064;-71
2021/05/11 15:22:38;;;;;;;2.83;1.63;;;48.50;28.00;;;;;;5074845;28;20413;-70
2021/05/11 15:25:05;;;;;;;2.30;1.55;;;47.70;28.40;;;;;;5057070;28;20035;-70
2021/05/11 15:27:31;;;;;;;1.63;1.50;;;46.90;29.00;;;;;;5075007;28;20028;-70
2021/05/11 15:29:58;;;;;;;2.47;1.42;;;45.30;29.30;;;;;;5074739;28;20392;-70
2021/05/11 15:33:02;;;;;;;2.05;1.60;;;43.30;29.90;;;;;;5074938;28;20024;-70
2021/05/11 15:35:33;;;;;;;1.83;1.45;;;41.50;31.30;;;;;;5074882;28;20031;-70
2021/05/11 15:38:00;;;;;;;1.48;1.35;;;;;;;;;;5074916;28;20434;-71
2021/05/11 15:40:27;;;;;;;2.50;1.85;;;;;;;;;;5056717;28;20489;-71
2021/05/11 15:42:55;;;;;;;4.22;1.60;;;;;;;;;;5056642;28;20035;-71
2021/05/11 15:45:22;;;;;;;2.75;1.70;;;;;;;;;;5074685;28;20025;-71
2021/05/11 15:47:52;;;;;;;1.83;1.73;;;;;;;;;;5074587;28;20032;-71
2021/05/11 15:50:19;;;;;;;3.42;1.70;;;;;;;;;;5074660;28;20035;-70
2021/05/11 15:52:46;;;;;;;4.15;1.67;;;;;;;;;;5074499;28;20020;-70
2021/05/11 15:55:12;;;;;;;3.38;1.58;;;;;;;;;;5074421;28;20480;-72
2021/05/11 15:57:39;;;;;;;3.78;1.88;;;;;;;;;;5074402;28;20115;-71
2021/05/11 16:00:06;;;;;;;2.72;2.05;;;;;;;;;;5056413;28;20025;-71
2021/05/11 16:02:32;;;;;;;2.35;1.63;;;;;;;;;;5074567;28;20090;-71
2021/05/11 16:04:58;;;;;;;2.13;1.73;;;;;;;;;;5074117;28;20034;-70
2021/05/11 16:07:24;;;;;;;2.85;1.77;;;;;;;;;;5074411;28;20033;-72
2021/05/11 16:09:51;;;;;;;4.18;1.90;;;;;;;;;;5074072;28;20029;-70
2021/05/11 16:12:17;;;;;;;5.43;2.47;;;;;;;;;;5073994;28;20048;-70
2021/05/11 16:14:43;;;;;;;2.10;1.88;;;;;;;;;;5074094;28;20465;-70
2021/05/11 16:17:09;;;;;;;2.67;2.00;;;;;;;;;;5073788;28;20078;-70
2021/05/11 16:19:35;;;;;;;6.35;2.13;;;;;;;;;;5073551;28;20028;-70
2021/05/11 16:22:02;;;;;;;3.03;2.10;;;;;;;;;;5073717;28;20104;-71
2021/05/11 16:24:28;;;;;;;3.97;1.80;;;;;;;;;;5055379;28;20039;-71
2021/05/11 16:26:54;;;;;;;2.72;1.83;;;;;;;;;;5073432;28;20056;-71
2021/05/11 16:29:20;;;;;;;3.10;2.10;;;;;;;;;;5055742;28;20372;-70
2021/05/11 16:31:48;;;;;;;5.30;2.20;;;;;;;;;;5055554;28;20170;-70
2021/05/11 16:34:14;;;;;;;1.77;1.55;;;;;;;;;;5073674;28;20020;-72
2021/05/11 16:36:40;;;;;;;3.15;1.55;;;;;;;;;;5073581;28;20024;-70
2021/05/11 16:39:07;;;;;;;4.32;2.42;;;;;;;;;;5073593;28;20027;-72
2021/05/11 16:41:33;;;;;;;1.50;1.40;;;;;;;;;;5055494;28;20112;-70
2021/05/11 16:43:59;;;;;;;2.22;1.73;;;;;;;;;;5073369;28;20050;-71
2021/05/11 16:46:26;;;;;;;3.13;1.80;;;;;;;;;;5055346;28;20111;-71
2021/05/11 16:48:52;;;;;;;4.68;1.80;;;;;;;;;;5073425;28;20025;-71
2021/05/11 16:51:19;;;;;;;2.95;1.70;;;;;;;;;;5055286;28;20107;-71
2021/05/11 16:53:45;;;;;;;4.13;1.77;;;;;;;;;;5073378;28;20028;-71
2021/05/11 16:56:11;;;;;;;4.30;1.95;;;;;;;;;;5072947;28;20043;-70
2021/05/11 16:58:37;;;;;;;2.60;1.50;;;;;;;;;;5072944;28;20063;-72
2021/05/11 17:01:04;;;;;;;2.50;1.50;;;;;;;;;;5073085;28;20522;-71
2021/05/11 17:03:30;;;;;;;3.67;2.03;;;;;;;;;;5073058;28;20552;-71
2021/05/11 17:05:57;;;;;;;3.33;1.67;;;;;;;;;;5073145;28;20059;-70
2021/05/11 17:08:23;;;;;;;2.25;1.58;;;;;;;;;;5072794;28;20100;-71
2021/05/11 17:10:49;;;;;;;3.25;1.60;;;;;;;;;;5052491;28;20078;-71
2021/05/11 17:13:15;;;;;;;4.43;1.63;;;;;;;;;;5073086;28;20028;-72
2021/05/11 17:15:42;;;;;;;4.10;1.98;;;;;;;;;;5073120;28;20017;-72
2021/05/11 17:18:08;;;;;;;2.83;1.58;;;;;;;;;;5073011;28;20017;-72
2021/05/11 17:20:35;;;;;;;1.65;1.40;;;;;;;;;;5072998;28;20028;-71
2021/05/11 17:23:02;;;;;;;2.55;1.70;;;;;;;;;;5072895;28;20469;-71
2021/05/11 17:25:28;;;;;;;3.67;1.70;;;;;;;;;;5072874;28;20024;-70
2021/05/11 17:27:55;;;;;;;1.85;1.63;;;;;;;;;;5072886;28;20028;-70
2021/05/11 17:30:23;;;;;;;2.40;1.80;;;;;;;;;;5072926;28;20074;-71
2021/05/11 17:32:50;;;;;;;2.20;1.80;;;;;;;;;;5054839;28;20476;-72
2021/05/11 17:35:16;;;;;;;1.70;1.60;;;;;;;;;;5072890;28;20078;-71
2021/05/11 17:37:44;;;;;;;3.80;1.88;;;;;;;;;;5072854;28;20013;-73
2021/05/11 17:40:20;;;;;;;11.80;2.75;;;;;;;;;;5072786;28;20021;-71
2021/05/11 17:42:47;;;;;;;3.85;2.03;;;;;;;;;;5073711;28;20111;-71
2021/05/11 17:45:14;;;;;;;2.83;2.20;;;;;;;;;;5076386;28;20495;-71